createdAt,value
2022-07-29T00:01:19.126Z,8.20
2022-07-29T00:03:46.839Z,1.83
2022-07-29T00:06:14.262Z,2.70
2022-07-29T00:08:41.239Z,5.75
2022-07-29T00:11:08.280Z,2.40
2022-07-29T00:13:35.401Z,1.48
2022-07-29T00:16:04.435Z,2.38
2022-07-29T00:18:32.949Z,1.58
2022-07-29T00:21:00.408Z,1.52
2022-07-29T00:23:27.555Z,2.40
2022-07-29T00:25:54.615Z,2.13
2022-07-29T00:28:21.592Z,1.88
2022-07-29T00:30:48.672Z,1.58
2022-07-29T00:33:15.758Z,1.83
2022-07-29T00:35:45.918Z,2.15
2022-07-29T00:38:17.523Z,1.60
2022-07-29T00:40:45.495Z,1.55
2022-07-29T00:43:14.754Z,1.35
2022-07-29T00:45:45.218Z,4.00
2022-07-29T00:48:12.308Z,1.48
2022-07-29T00:50:40.152Z,1.27
2022-07-29T00:53:08.566Z,2.95
2022-07-29T00:55:36.088Z,3.65
2022-07-29T00:58:03.810Z,3.53
2022-07-29T01:00:31.426Z,2.13
2022-07-29T01:02:58.927Z,1.65
2022-07-29T01:05:49.860Z,4.45
2022-07-29T01:08:17.098Z,6.22
2022-07-29T01:10:46.520Z,5.88
2022-07-29T01:13:14.846Z,9.43
2022-07-29T01:16:08.572Z,4.18
2022-07-29T01:18:39.202Z,2.05
2022-07-29T01:21:35.066Z,9.68
2022-07-29T01:24:10.917Z,2.13
2022-07-29T01:26:48.129Z,6.25
2022-07-29T01:29:59.915Z,4.18
2022-07-29T01:32:34.234Z,4.60
2022-07-29T01:35:37.610Z,5.22
2022-07-29T01:38:26.313Z,1.70
2022-07-29T01:41:00.083Z,3.58
2022-07-29T01:43:41.881Z,5.85
2022-07-29T01:46:15.683Z,8.00
2022-07-29T01:48:58.843Z,3.47
2022-07-29T01:51:32.907Z,4.07
2022-07-29T01:54:11.998Z,4.93
2022-07-29T01:56:40.694Z,2.22
2022-07-29T01:59:10.610Z,6.15
2022-07-29T02:01:40.369Z,1.60
2022-07-29T02:04:10.942Z,3.38
2022-07-29T02:06:41.325Z,1.70
2022-07-29T02:09:09.601Z,1.83
2022-07-29T02:11:38.888Z,3.42
2022-07-29T02:14:08.244Z,2.47
2022-07-29T02:16:38.707Z,4.47
2022-07-29T02:19:09.796Z,6.15
2022-07-29T02:21:37.099Z,14.25
2022-07-29T02:24:06.158Z,8.02
2022-07-29T02:26:34.775Z,10.00
2022-07-29T02:29:03.344Z,21.42
2022-07-29T02:31:34.809Z,20.25
2022-07-29T02:34:04.652Z,14.05
2022-07-29T02:36:33.867Z,21.95
2022-07-29T02:39:03.420Z,20.73
2022-07-29T02:41:51.631Z,19.50
2022-07-29T02:44:21.846Z,23.90
2022-07-29T02:47:25.788Z,27.95
2022-07-29T02:50:02.505Z,22.25
2022-07-29T02:52:41.089Z,22.50
2022-07-29T02:55:37.578Z,17.83
2022-07-29T02:58:13.787Z,21.15
2022-07-29T03:00:42.230Z,20.10
2022-07-29T03:03:13.797Z,22.52
2022-07-29T03:05:41.371Z,16.55
2022-07-29T03:08:11.553Z,16.42
2022-07-29T03:10:45.160Z,27.77
2022-07-29T03:13:14.314Z,24.23
2022-07-29T03:15:44.761Z,15.35
2022-07-29T03:18:12.343Z,22.63
2022-07-29T03:20:40.093Z,18.08
2022-07-29T03:23:07.656Z,24.80
2022-07-29T03:25:34.702Z,17.90
2022-07-29T03:28:01.739Z,20.15
2022-07-29T03:30:31.686Z,19.77
2022-07-29T03:32:59.220Z,19.80
2022-07-29T03:35:26.276Z,22.73
2022-07-29T03:37:53.251Z,29.60
2022-07-29T03:40:36.672Z,20.67
2022-07-29T03:43:05.004Z,17.92
2022-07-29T03:45:33.842Z,17.85
2022-07-29T03:48:06.713Z,17.70
2022-07-29T03:50:34.904Z,8.07
2022-07-29T03:53:02.565Z,6.30
2022-07-29T03:55:33.509Z,10.32
2022-07-29T03:58:02.775Z,13.18
2022-07-29T04:00:31.138Z,18.52
2022-07-29T04:02:58.953Z,12.63
2022-07-29T04:05:25.936Z,14.85
2022-07-29T04:07:52.864Z,7.43
2022-07-29T04:10:26.886Z,17.67
2022-07-29T04:12:59.089Z,12.73
2022-07-29T04:15:26.085Z,6.03
2022-07-29T04:17:57.885Z,9.48
2022-07-29T04:20:24.826Z,5.95
2022-07-29T04:22:52.127Z,6.60
2022-07-29T04:25:19.076Z,6.15
2022-07-29T04:28:04.388Z,2.13
2022-07-29T04:30:32.869Z,2.90
2022-07-29T04:33:01.901Z,1.20
2022-07-29T04:35:30.140Z,2.65
2022-07-29T04:37:57.453Z,1.40
2022-07-29T04:40:24.378Z,1.42
2022-07-29T04:42:51.373Z,3.40
2022-07-29T04:45:22.282Z,7.25
2022-07-29T04:47:49.949Z,1.92
2022-07-29T04:50:16.930Z,1.30
2022-07-29T04:52:44.894Z,1.10
2022-07-29T04:55:11.944Z,1.75
2022-07-29T04:57:38.869Z,5.45
2022-07-29T05:00:07.215Z,1.40
2022-07-29T05:02:34.233Z,1.90
2022-07-29T05:05:01.354Z,3.55
2022-07-29T05:07:28.280Z,7.78
2022-07-29T05:09:57.950Z,9.95
2022-07-29T05:12:25.692Z,12.85
2022-07-29T05:14:52.983Z,4.32
2022-07-29T05:17:20.144Z,4.78
2022-07-29T05:19:47.339Z,6.00
2022-07-29T05:22:14.335Z,6.20
2022-07-29T05:24:41.852Z,4.70
2022-07-29T05:27:08.764Z,5.15
2022-07-29T05:29:44.221Z,8.18
2022-07-29T05:32:12.023Z,5.75
2022-07-29T05:34:50.845Z,4.65
2022-07-29T05:37:19.851Z,5.57
2022-07-29T05:39:48.770Z,14.82
2022-07-29T05:42:16.250Z,6.28
2022-07-29T05:44:43.277Z,4.32
2022-07-29T05:47:10.213Z,3.67
2022-07-29T05:49:37.234Z,6.93
2022-07-29T05:52:04.662Z,4.10
2022-07-29T05:54:31.771Z,3.88
2022-07-29T05:56:58.764Z,1.65
2022-07-29T05:59:30.142Z,4.70
2022-07-29T06:01:58.440Z,1.65
2022-07-29T06:04:25.786Z,3.83
2022-07-29T06:06:52.831Z,1.80
2022-07-29T06:09:20.094Z,1.90
2022-07-29T06:11:47.130Z,2.08
2022-07-29T06:14:14.771Z,1.65
2022-07-29T06:16:42.351Z,1.13
2022-07-29T06:19:09.612Z,1.52
2022-07-29T06:21:38.665Z,0.88
2022-07-29T06:24:09.164Z,0.95
2022-07-29T06:26:39.699Z,1.25
2022-07-29T06:29:07.897Z,1.23
2022-07-29T06:31:35.455Z,3.05
2022-07-29T06:34:02.374Z,1.00
2022-07-29T06:36:31.040Z,4.38
2022-07-29T06:38:58.067Z,0.93
2022-07-29T06:41:25.023Z,4.60
2022-07-29T06:43:55.211Z,0.85
2022-07-29T06:46:24.236Z,2.40
2022-07-29T06:48:53.078Z,0.93
2022-07-29T06:51:22.786Z,3.10
2022-07-29T06:53:59.500Z,4.05
2022-07-29T06:56:39.524Z,1.30
2022-07-29T06:59:10.565Z,1.35
2022-07-29T07:01:38.779Z,3.42
2022-07-29T07:04:05.883Z,0.90
2022-07-29T07:06:33.668Z,3.03
2022-07-29T07:09:00.639Z,0.90
2022-07-29T07:11:27.986Z,1.23
2022-07-29T07:13:59.267Z,18.15
2022-07-29T07:16:29.587Z,1.95
2022-07-29T07:18:56.515Z,1.77
2022-07-29T07:21:24.663Z,3.90
2022-07-29T07:23:51.620Z,4.13
2022-07-29T07:26:18.540Z,7.40
2022-07-29T07:28:45.521Z,3.30
2022-07-29T07:31:13.038Z,3.38
2022-07-29T07:33:40.022Z,2.05
2022-07-29T07:36:07.084Z,1.58
2022-07-29T07:38:34.087Z,12.07
2022-07-29T07:41:02.198Z,3.55
2022-07-29T07:43:29.310Z,6.28
2022-07-29T07:45:56.316Z,5.28
2022-07-29T07:48:23.279Z,2.50
2022-07-29T07:50:50.553Z,2.05
2022-07-29T07:53:17.811Z,2.85
2022-07-29T07:56:09.377Z,3.30
2022-07-29T07:58:33.877Z,5.20
2022-07-29T08:01:00.818Z,7.38
2022-07-29T08:03:27.805Z,2.47
2022-07-29T08:05:55.428Z,6.35
2022-07-29T08:08:22.442Z,3.13
2022-07-29T08:10:57.145Z,8.45
2022-07-29T08:13:31.506Z,8.07
2022-07-29T08:18:31.339Z,2.72
2022-07-29T08:20:59.226Z,2.58
2022-07-29T08:23:32.828Z,6.93
2022-07-29T08:26:14.849Z,3.90
2022-07-29T08:28:45.869Z,3.78
2022-07-29T08:31:14.236Z,5.50
2022-07-29T08:33:41.252Z,7.07
2022-07-29T08:36:08.445Z,6.88
2022-07-29T08:38:36.014Z,4.10
2022-07-29T08:41:03.024Z,2.05
2022-07-29T08:43:30.285Z,1.55
2022-07-29T08:45:57.290Z,3.08
2022-07-29T08:48:25.915Z,3.38
2022-07-29T08:50:57.937Z,6.03
2022-07-29T08:53:27.924Z,3.45
2022-07-29T08:55:56.075Z,2.42
2022-07-29T08:58:24.857Z,2.22
2022-07-29T09:00:56.975Z,5.25
2022-07-29T09:03:28.518Z,5.13
2022-07-29T09:05:55.694Z,7.22
2022-07-29T09:08:24.306Z,13.02
2022-07-29T09:10:52.340Z,3.47
2022-07-29T09:13:19.368Z,3.05
2022-07-29T09:15:46.631Z,1.23
2022-07-29T09:18:19.604Z,2.35
2022-07-29T09:21:16.071Z,2.40
2022-07-29T09:24:00.301Z,3.35
2022-07-29T09:26:37.603Z,1.83
2022-07-29T09:29:17.771Z,2.58
2022-07-29T09:31:50.033Z,3.72
2022-07-29T09:34:29.603Z,0.90
2022-07-29T09:36:57.032Z,3.63
2022-07-29T09:39:36.107Z,1.67
2022-07-29T09:42:07.748Z,2.90
2022-07-29T09:44:50.245Z,4.22
2022-07-29T09:47:19.165Z,2.53
2022-07-29T09:49:54.029Z,1.13
2022-07-29T09:52:21.645Z,5.43
2022-07-29T09:54:48.847Z,2.00
2022-07-29T09:57:31.115Z,3.10
2022-07-29T10:00:11.833Z,6.03
2022-07-29T10:02:41.103Z,1.00
2022-07-29T10:05:21.236Z,4.00
2022-07-29T10:07:51.883Z,1.98
2022-07-29T10:10:29.217Z,2.05
2022-07-29T10:13:06.419Z,5.50
2022-07-29T10:15:42.001Z,8.07
2022-07-29T10:18:10.483Z,1.37
2022-07-29T10:20:38.107Z,3.83
2022-07-29T10:23:05.886Z,3.47
2022-07-29T10:25:33.128Z,12.38
2022-07-29T10:28:00.165Z,1.42
2022-07-29T10:30:27.860Z,6.90
2022-07-29T10:33:03.657Z,3.75
2022-07-29T10:35:55.175Z,6.13
2022-07-29T10:38:33.930Z,0.95
2022-07-29T10:41:29.032Z,4.30
2022-07-29T10:44:23.207Z,2.00
2022-07-29T10:46:56.267Z,3.05
2022-07-29T10:49:28.085Z,3.30
2022-07-29T10:52:00.998Z,4.75
2022-07-29T10:54:52.610Z,1.58
2022-07-29T10:57:53.803Z,1.27
2022-07-29T11:00:17.018Z,1.35
2022-07-29T11:02:47.126Z,0.98
2022-07-29T11:05:21.872Z,2.65
2022-07-29T11:08:21.101Z,1.58
2022-07-29T11:11:15.871Z,3.50
2022-07-29T11:13:44.455Z,12.07
2022-07-29T11:16:11.460Z,2.00
2022-07-29T11:19:14.225Z,5.75
2022-07-29T11:21:55.127Z,4.60
2022-07-29T11:24:34.966Z,6.25
2022-07-29T11:27:18.381Z,1.75
2022-07-29T11:29:58.709Z,3.47
2022-07-29T11:32:38.888Z,1.13
2022-07-29T11:35:17.392Z,4.53
2022-07-29T11:37:52.780Z,8.18
2022-07-29T11:40:25.112Z,2.15
2022-07-29T11:42:52.811Z,2.35
2022-07-29T11:45:43.140Z,2.95
2022-07-29T11:48:28.540Z,2.65
2022-07-29T11:50:58.503Z,3.10
2022-07-29T11:53:26.097Z,1.42
2022-07-29T11:55:58.185Z,5.75
2022-07-29T11:58:26.358Z,0.75
2022-07-29T12:00:55.330Z,1.45
2022-07-29T12:03:33.490Z,3.70
2022-07-29T12:06:24.139Z,7.60
2022-07-29T12:08:51.187Z,7.05
2022-07-29T12:11:20.914Z,6.88
2022-07-29T12:13:50.050Z,3.38
2022-07-29T12:16:26.134Z,2.42
2022-07-29T12:19:02.360Z,1.30
2022-07-29T12:21:53.937Z,1.35
2022-07-29T12:24:27.443Z,1.80
2022-07-29T12:26:57.122Z,1.35
2022-07-29T12:29:34.988Z,3.35
2022-07-29T12:32:04.453Z,2.15
2022-07-29T12:34:32.359Z,1.30
2022-07-29T12:36:59.580Z,1.13
2022-07-29T12:39:29.045Z,2.38
2022-07-29T12:42:04.880Z,1.35
2022-07-29T12:44:51.565Z,0.70
2022-07-29T12:47:19.706Z,2.35
2022-07-29T12:49:47.870Z,1.05
2022-07-29T12:52:26.866Z,1.33
2022-07-29T12:54:53.882Z,1.08
2022-07-29T12:57:20.910Z,5.28
2022-07-29T13:00:00.948Z,1.23
2022-07-29T13:02:28.160Z,1.23
2022-07-29T13:05:00.267Z,1.23
2022-07-29T13:07:55.495Z,4.75
2022-07-29T13:10:24.645Z,0.82
2022-07-29T13:13:09.190Z,3.58
2022-07-29T13:15:41.238Z,6.07
2022-07-29T13:18:31.440Z,9.07
2022-07-29T13:20:58.852Z,3.45
2022-07-29T13:23:25.887Z,1.67
2022-07-29T13:25:52.871Z,1.33
2022-07-29T13:28:22.571Z,0.75
2022-07-29T13:30:49.572Z,2.78
2022-07-29T13:33:16.534Z,2.42
2022-07-29T13:35:43.583Z,3.72
2022-07-29T13:38:10.542Z,3.85
2022-07-29T13:40:37.418Z,2.35
2022-07-29T13:43:05.022Z,1.85
2022-07-29T13:45:32.085Z,1.67
2022-07-29T13:47:58.973Z,1.58
2022-07-29T13:50:25.928Z,1.67
2022-07-29T13:52:53.069Z,1.80
2022-07-29T13:55:20.709Z,1.30
2022-07-29T13:57:47.960Z,6.25
2022-07-29T14:00:16.236Z,2.03
2022-07-29T14:02:44.022Z,1.55
2022-07-29T14:05:11.325Z,4.45
2022-07-29T14:07:42.094Z,3.55
2022-07-29T14:10:09.578Z,1.33
2022-07-29T14:12:36.796Z,1.65
2022-07-29T14:15:04.089Z,4.72
2022-07-29T14:17:31.135Z,1.23
2022-07-29T14:19:58.059Z,6.93
2022-07-29T14:22:26.281Z,2.53
2022-07-29T14:24:53.616Z,3.10
2022-07-29T14:27:20.654Z,6.75
2022-07-29T14:30:05.780Z,1.58
2022-07-29T14:32:32.679Z,2.90
2022-07-29T14:34:59.568Z,8.80
2022-07-29T14:37:26.481Z,1.38
2022-07-29T14:39:53.483Z,2.45
2022-07-29T14:42:20.912Z,1.13
2022-07-29T14:44:48.914Z,2.55
2022-07-29T14:47:16.226Z,2.47
2022-07-29T14:49:43.130Z,3.72
2022-07-29T14:52:09.998Z,5.28
2022-07-29T14:54:36.929Z,2.45
2022-07-29T14:57:03.844Z,4.78
2022-07-29T14:59:30.870Z,1.92
2022-07-29T15:01:58.275Z,2.40
2022-07-29T15:04:25.591Z,1.90
2022-07-29T15:06:52.998Z,1.77
2022-07-29T15:09:19.927Z,6.40
2022-07-29T15:11:46.879Z,3.17
2022-07-29T15:14:13.820Z,5.55
2022-07-29T15:16:43.714Z,2.13
2022-07-29T15:19:11.109Z,7.72
2022-07-29T15:21:41.427Z,4.90
2022-07-29T15:24:15.448Z,4.10
2022-07-29T15:26:43.562Z,2.35
2022-07-29T15:29:10.741Z,2.83
2022-07-29T15:31:37.818Z,4.13
2022-07-29T15:34:06.258Z,3.13
2022-07-29T15:39:21.878Z,2.03
2022-07-29T15:41:49.210Z,5.68
2022-07-29T15:44:16.162Z,3.08
2022-07-29T15:47:02.047Z,1.85
2022-07-29T15:49:47.763Z,3.67
2022-07-29T15:52:25.886Z,9.52
2022-07-29T15:54:56.190Z,3.78
2022-07-29T15:57:23.921Z,5.32
2022-07-29T15:59:51.129Z,5.93
2022-07-29T16:02:18.154Z,5.45
2022-07-29T16:04:45.060Z,3.08
2022-07-29T16:07:12.177Z,8.82
2022-07-29T16:09:41.782Z,3.75
2022-07-29T16:12:14.612Z,2.53
2022-07-29T16:14:42.278Z,3.83
2022-07-29T16:17:09.340Z,1.55
2022-07-29T16:19:41.273Z,2.25
2022-07-29T16:22:08.372Z,5.20
2022-07-29T16:24:35.414Z,4.90
2022-07-29T16:27:02.418Z,2.47
2022-07-29T16:29:29.358Z,4.28
2022-07-29T16:31:56.529Z,6.50
2022-07-29T16:34:23.425Z,3.85
2022-07-29T16:36:50.360Z,2.53
2022-07-29T16:39:17.456Z,4.35
2022-07-29T16:41:44.353Z,2.08
2022-07-29T16:44:11.238Z,8.52
2022-07-29T16:46:40.859Z,1.65
2022-07-29T16:49:08.581Z,3.35
2022-07-29T16:51:35.604Z,3.85
2022-07-29T16:54:02.561Z,3.50
2022-07-29T16:56:29.514Z,3.15
2022-07-29T16:58:58.390Z,4.20
2022-07-29T17:01:25.413Z,3.90
2022-07-29T17:04:07.824Z,5.47
2022-07-29T17:06:36.283Z,3.25
2022-07-29T17:09:05.384Z,2.03
2022-07-29T17:11:53.171Z,3.53
2022-07-29T17:14:27.467Z,2.53
2022-07-29T17:17:02.333Z,2.65
2022-07-29T17:19:35.598Z,5.97
2022-07-29T17:22:18.708Z,8.15
2022-07-29T17:24:48.903Z,7.13
2022-07-29T17:27:16.295Z,2.10
2022-07-29T17:29:43.557Z,2.92
2022-07-29T17:32:11.486Z,3.38
2022-07-29T17:34:40.180Z,4.10
2022-07-29T17:37:09.561Z,3.10
2022-07-29T17:39:37.686Z,3.70
2022-07-29T17:42:05.457Z,5.00
2022-07-29T17:44:36.090Z,6.95
2022-07-29T17:47:04.443Z,15.45
2022-07-29T17:49:31.665Z,5.35
2022-07-29T17:52:00.982Z,3.15
2022-07-29T17:54:29.026Z,3.22
2022-07-29T17:56:56.142Z,6.07
2022-07-29T17:59:23.414Z,2.60
2022-07-29T18:01:50.446Z,2.53
2022-07-29T18:04:21.071Z,5.63
2022-07-29T18:06:48.064Z,3.47
2022-07-29T18:09:14.964Z,4.45
2022-07-29T18:11:44.397Z,2.88
2022-07-29T18:14:12.755Z,4.75
2022-07-29T18:16:39.721Z,3.42
2022-07-29T18:19:06.958Z,3.80
2022-07-29T18:21:42.710Z,2.42
2022-07-29T18:24:18.357Z,3.63
2022-07-29T18:26:45.377Z,8.13
2022-07-29T18:29:12.483Z,6.53
2022-07-29T18:31:41.281Z,3.65
2022-07-29T18:34:08.351Z,8.07
2022-07-29T18:36:35.262Z,5.28
2022-07-29T18:39:02.291Z,4.25
2022-07-29T18:41:29.337Z,3.75
2022-07-29T18:43:56.418Z,6.50
2022-07-29T18:46:23.339Z,5.13
2022-07-29T18:48:52.603Z,4.28
2022-07-29T18:51:19.572Z,4.75
2022-07-29T18:53:46.532Z,3.17
2022-07-29T18:56:13.718Z,4.32
2022-07-29T18:58:40.749Z,3.17
2022-07-29T19:01:07.644Z,4.18
2022-07-29T19:03:34.889Z,4.15
2022-07-29T19:06:01.893Z,5.50
2022-07-29T19:08:28.913Z,3.30
2022-07-29T19:10:56.191Z,3.28
2022-07-29T19:13:23.419Z,2.55
2022-07-29T19:15:50.367Z,6.05
2022-07-29T19:18:17.302Z,6.13
2022-07-29T19:20:44.213Z,2.50
2022-07-29T19:23:11.125Z,5.15
2022-07-29T19:25:48.213Z,2.65
2022-07-29T19:28:21.160Z,3.33
2022-07-29T19:30:48.245Z,5.28
2022-07-29T19:33:17.706Z,3.72
2022-07-29T19:35:45.879Z,3.25
2022-07-29T19:38:13.328Z,3.55
2022-07-29T19:40:40.620Z,3.33
2022-07-29T19:43:50.790Z,5.05
2022-07-29T19:45:54.929Z,5.45
2022-07-29T19:48:21.840Z,2.85
2022-07-29T19:50:48.934Z,7.93
2022-07-29T19:53:15.841Z,5.32
2022-07-29T19:55:42.879Z,4.88
2022-07-29T19:58:09.795Z,3.75
2022-07-29T20:00:36.880Z,6.72
2022-07-29T20:03:07.087Z,5.00
2022-07-29T20:05:34.179Z,3.25
2022-07-29T20:08:01.148Z,4.13
2022-07-29T20:10:28.489Z,3.10
2022-07-29T20:12:55.533Z,5.25
2022-07-29T20:15:22.810Z,3.40
2022-07-29T20:17:51.856Z,3.85
2022-07-29T20:20:23.297Z,2.85
2022-07-29T20:22:50.226Z,5.53
2022-07-29T20:25:17.186Z,6.13
2022-07-29T20:27:44.083Z,4.68
2022-07-29T20:30:14.307Z,10.32
2022-07-29T20:32:41.951Z,3.30
2022-07-29T20:35:13.568Z,5.72
2022-07-29T20:37:52.519Z,5.18
2022-07-29T20:40:25.079Z,3.05
2022-07-29T20:42:52.402Z,5.93
2022-07-29T20:45:20.203Z,4.10
2022-07-29T20:47:47.198Z,11.30
2022-07-29T20:50:14.495Z,4.30
2022-07-29T20:52:43.409Z,5.80
2022-07-29T20:55:10.890Z,5.25
2022-07-29T20:57:39.472Z,7.07
2022-07-29T21:00:08.004Z,4.70
2022-07-29T21:02:36.802Z,6.07
2022-07-29T21:05:04.504Z,4.95
2022-07-29T21:07:31.498Z,3.42
2022-07-29T21:09:58.409Z,10.50
2022-07-29T21:12:25.378Z,5.05
2022-07-29T21:14:52.357Z,7.70
2022-07-29T21:17:22.410Z,5.93
2022-07-29T21:19:55.368Z,6.82
2022-07-29T21:22:23.557Z,7.43
2022-07-29T21:24:50.571Z,7.10
2022-07-29T21:27:38.446Z,5.30
2022-07-29T21:30:07.935Z,8.32
2022-07-29T21:32:34.941Z,8.50
2022-07-29T21:35:01.971Z,7.00
2022-07-29T21:37:29.057Z,7.95
2022-07-29T21:39:56.074Z,7.97
2022-07-29T21:42:23.103Z,8.60
2022-07-29T21:44:51.690Z,11.05
2022-07-29T21:47:18.678Z,8.68
2022-07-29T21:49:46.639Z,10.90
2022-07-29T21:52:14.194Z,10.48
2022-07-29T21:54:41.949Z,9.60
2022-07-29T21:57:09.445Z,7.00
2022-07-29T21:59:36.533Z,6.85
2022-07-29T22:02:03.801Z,7.65
2022-07-29T22:04:31.433Z,8.70
2022-07-29T22:06:58.956Z,8.07
2022-07-29T22:09:26.475Z,11.40
2022-07-29T22:11:54.286Z,9.30
2022-07-29T22:14:22.334Z,9.90
2022-07-29T22:16:49.360Z,11.57
2022-07-29T22:19:16.496Z,13.25
2022-07-29T22:21:43.809Z,13.82
2022-07-29T22:24:11.391Z,11.13
2022-07-29T22:26:38.846Z,14.35
2022-07-29T22:29:06.574Z,12.45
2022-07-29T22:31:33.982Z,16.55
2022-07-29T22:34:00.944Z,13.60
2022-07-29T22:36:27.840Z,14.05
2022-07-29T22:38:54.796Z,20.25
2022-07-29T22:41:21.726Z,14.13
2022-07-29T22:43:48.615Z,13.02
2022-07-29T22:46:15.818Z,15.63
2022-07-29T22:48:42.840Z,19.10
2022-07-29T22:51:10.108Z,16.67
2022-07-29T22:53:37.141Z,15.60
2022-07-29T22:56:04.557Z,20.83
2022-07-29T22:58:31.507Z,16.45
2022-07-29T23:00:58.738Z,17.42
2022-07-29T23:03:25.760Z,18.25
2022-07-29T23:05:52.860Z,17.73
2022-07-29T23:08:20.126Z,16.73
2022-07-29T23:10:47.687Z,11.43
2022-07-29T23:13:14.965Z,15.02
2022-07-29T23:15:42.232Z,13.93
2022-07-29T23:18:09.288Z,18.48
2022-07-29T23:20:36.465Z,13.27
2022-07-29T23:23:03.700Z,15.77
2022-07-29T23:25:30.674Z,20.63
2022-07-29T23:27:57.744Z,13.88
2022-07-29T23:30:24.925Z,15.05
2022-07-29T23:32:52.224Z,18.83
2022-07-29T23:35:19.233Z,15.50
2022-07-29T23:37:46.193Z,15.00
2022-07-29T23:40:14.735Z,18.42
2022-07-29T23:42:42.816Z,18.85
2022-07-29T23:45:11.415Z,16.92
2022-07-29T23:47:38.735Z,20.13
2022-07-29T23:50:07.623Z,18.85
2022-07-29T23:52:35.642Z,15.98
2022-07-29T23:55:37.431Z,15.13
2022-07-29T23:57:50.357Z,16.92
